createdAt,value
2022-08-26T00:01:58.935Z,73.31
2022-08-26T00:04:52.474Z,73.27
2022-08-26T00:07:44.567Z,73.23
2022-08-26T00:10:38.780Z,73.84
2022-08-26T00:13:30.954Z,73.92
2022-08-26T00:16:23.646Z,74.19
2022-08-26T00:19:15.966Z,74.35
2022-08-26T00:22:08.316Z,74.17
2022-08-26T00:25:00.444Z,74.29
2022-08-26T00:27:53.337Z,74.27
2022-08-26T00:30:48.209Z,74.33
2022-08-26T00:33:44.049Z,74.27
2022-08-26T00:36:36.618Z,74.32
2022-08-26T00:39:28.641Z,74.42
2022-08-26T00:42:21.083Z,74.54
2022-08-26T00:45:14.813Z,74.68
2022-08-26T00:48:09.015Z,74.76
2022-08-26T00:51:05.522Z,74.80
2022-08-26T00:54:03.629Z,74.77
2022-08-26T00:56:59.951Z,75.03
2022-08-26T00:59:58.268Z,75.31
2022-08-26T01:02:52.214Z,75.70
2022-08-26T01:05:45.094Z,75.75
2022-08-26T01:08:38.508Z,75.80
2022-08-26T01:11:31.658Z,75.85
2022-08-26T01:14:25.741Z,75.92
2022-08-26T01:17:17.856Z,75.89
2022-08-26T01:19:52.298Z,75.95
2022-08-26T01:22:56.170Z,75.79
2022-08-26T01:25:51.842Z,75.83
2022-08-26T01:28:44.678Z,75.81
2022-08-26T01:31:37.889Z,76.05
2022-08-26T01:34:35.122Z,76.02
2022-08-26T01:37:33.525Z,76.09
2022-08-26T01:40:29.223Z,76.43
2022-08-26T01:43:29.040Z,76.58
2022-08-26T01:46:22.899Z,76.66
2022-08-26T01:49:17.412Z,76.61
2022-08-26T01:52:11.508Z,76.59
2022-08-26T01:55:06.029Z,76.64
2022-08-26T01:57:53.325Z,76.68
2022-08-26T02:00:49.203Z,76.84
2022-08-26T02:03:57.214Z,76.95
2022-08-26T02:06:40.418Z,77.07
2022-08-26T02:09:32.646Z,76.92
2022-08-26T02:12:33.726Z,77.03
2022-08-26T02:15:26.122Z,77.08
2022-08-26T02:18:18.690Z,76.94
2022-08-26T02:21:13.239Z,77.22
2022-08-26T02:24:16.483Z,77.43
2022-08-26T02:27:09.931Z,77.52
2022-08-26T02:30:08.594Z,77.78
2022-08-26T02:33:03.802Z,77.90
2022-08-26T02:35:57.040Z,77.94
2022-08-26T02:38:49.157Z,78.11
2022-08-26T02:41:45.294Z,77.94
2022-08-26T02:44:40.005Z,78.01
2022-08-26T02:47:33.512Z,78.09
2022-08-26T02:50:26.289Z,77.94
2022-08-26T02:53:25.008Z,78.03
2022-08-26T02:56:17.662Z,77.83
2022-08-26T02:59:12.449Z,77.83
2022-08-26T03:02:04.679Z,77.75
2022-08-26T03:04:57.875Z,77.85
2022-08-26T03:07:54.290Z,77.94
2022-08-26T03:10:46.580Z,77.78
2022-08-26T03:13:40.758Z,77.78
2022-08-26T03:16:34.076Z,77.82
2022-08-26T03:19:27.280Z,77.65
2022-08-26T03:22:19.335Z,77.59
2022-08-26T03:25:15.981Z,77.59
2022-08-26T03:28:09.658Z,77.56
2022-08-26T03:31:01.979Z,77.59
2022-08-26T03:33:57.638Z,77.51
2022-08-26T03:36:52.802Z,77.59
2022-08-26T03:39:44.776Z,77.68
2022-08-26T03:42:37.856Z,77.85
2022-08-26T03:45:30.473Z,77.91
2022-08-26T03:48:22.577Z,77.91
2022-08-26T03:51:18.388Z,78.00
2022-08-26T03:54:11.009Z,78.27
2022-08-26T03:57:03.488Z,78.06
2022-08-26T03:59:55.539Z,77.89
2022-08-26T04:02:41.263Z,77.66
2022-08-26T04:05:33.431Z,77.54
2022-08-26T04:08:25.947Z,77.58
2022-08-26T04:11:22.957Z,77.46
2022-08-26T04:14:20.064Z,77.47
2022-08-26T04:17:12.344Z,77.51
2022-08-26T04:20:05.073Z,77.35
2022-08-26T04:22:58.688Z,77.21
2022-08-26T04:25:51.635Z,76.75
2022-08-26T04:28:26.681Z,76.24
2022-08-26T04:31:14.662Z,76.16
2022-08-26T04:34:01.597Z,75.94
2022-08-26T04:36:44.231Z,75.83
2022-08-26T04:39:27.648Z,75.42
2022-08-26T04:42:25.970Z,75.27
2022-08-26T04:45:14.186Z,74.91
2022-08-26T04:48:06.918Z,74.53
2022-08-26T04:51:04.475Z,74.34
2022-08-26T04:53:58.729Z,74.15
2022-08-26T04:56:46.508Z,74.29
2022-08-26T04:59:39.560Z,74.29
2022-08-26T05:02:31.703Z,74.24
2022-08-26T05:05:24.862Z,73.99
2022-08-26T05:08:18.435Z,73.48
2022-08-26T05:11:07.560Z,73.20
2022-08-26T05:14:02.223Z,73.10
2022-08-26T05:16:54.803Z,73.17
2022-08-26T05:19:47.229Z,73.11
2022-08-26T05:22:39.514Z,73.04
2022-08-26T05:25:31.728Z,72.55
2022-08-26T05:28:24.420Z,72.18
2022-08-26T05:31:19.711Z,72.36
2022-08-26T05:34:12.058Z,72.29
2022-08-26T05:37:04.757Z,71.69
2022-08-26T05:39:57.353Z,70.94
2022-08-26T05:42:50.460Z,70.60
2022-08-26T05:45:46.519Z,70.46
2022-08-26T05:48:39.822Z,69.38
2022-08-26T05:51:37.672Z,68.91
2022-08-26T05:54:22.255Z,68.76
2022-08-26T05:57:03.359Z,68.62
2022-08-26T05:59:55.613Z,67.79
2022-08-26T06:02:38.801Z,66.59
2022-08-26T06:05:33.288Z,66.60
2022-08-26T06:08:27.546Z,66.19
2022-08-26T06:11:25.458Z,65.77
2022-08-26T06:14:18.354Z,64.61
2022-08-26T06:17:10.522Z,64.45
2022-08-26T06:20:02.750Z,64.53
2022-08-26T06:23:12.279Z,63.80
2022-08-26T06:26:05.607Z,63.28
2022-08-26T06:28:57.702Z,62.86
2022-08-26T06:31:50.131Z,62.31
2022-08-26T06:34:43.874Z,62.02
2022-08-26T06:37:35.813Z,61.13
2022-08-26T06:40:22.769Z,60.24
2022-08-26T06:43:15.342Z,60.48
2022-08-26T06:46:14.465Z,60.52
2022-08-26T06:49:07.195Z,60.02
2022-08-26T06:51:52.776Z,59.46
2022-08-26T06:54:45.008Z,59.36
2022-08-26T06:57:32.879Z,58.83
2022-08-26T07:00:11.953Z,58.41
2022-08-26T07:03:04.807Z,58.03
2022-08-26T07:06:01.872Z,56.70
2022-08-26T07:09:06.500Z,56.59
2022-08-26T07:12:02.446Z,56.31
2022-08-26T07:14:55.350Z,56.18
2022-08-26T07:17:49.717Z,55.10
2022-08-26T07:20:42.995Z,55.12
2022-08-26T07:23:36.115Z,54.35
2022-08-26T07:26:25.121Z,54.28
2022-08-26T07:29:17.430Z,53.68
2022-08-26T07:32:10.858Z,53.93
2022-08-26T07:35:03.161Z,53.48
2022-08-26T07:37:57.042Z,53.57
2022-08-26T07:40:49.227Z,52.75
2022-08-26T07:43:42.252Z,52.02
2022-08-26T07:46:35.035Z,51.27
2022-08-26T07:49:28.173Z,50.95
2022-08-26T07:52:13.918Z,50.11
2022-08-26T07:54:51.111Z,50.38
2022-08-26T07:57:43.210Z,49.99
2022-08-26T08:00:36.054Z,50.15
2022-08-26T08:03:28.079Z,49.41
2022-08-26T08:06:23.224Z,48.46
2022-08-26T08:09:18.193Z,48.81
2022-08-26T08:12:04.160Z,47.84
2022-08-26T08:14:51.460Z,47.55
2022-08-26T08:17:36.296Z,47.64
2022-08-26T08:20:19.700Z,45.92
2022-08-26T08:23:11.686Z,44.04
2022-08-26T08:26:01.433Z,44.66
2022-08-26T08:28:47.899Z,44.98
2022-08-26T08:31:52.084Z,43.96
2022-08-26T08:34:37.910Z,44.36
2022-08-26T08:37:30.016Z,43.71
2022-08-26T08:40:18.476Z,42.99
2022-08-26T08:43:14.720Z,42.53
2022-08-26T08:46:11.389Z,42.44
2022-08-26T08:49:04.307Z,42.15
2022-08-26T08:51:43.973Z,41.38
2022-08-26T08:54:26.458Z,39.61
2022-08-26T08:57:27.443Z,39.82
2022-08-26T09:00:18.141Z,40.12
2022-08-26T09:03:16.922Z,36.78
2022-08-26T09:05:51.579Z,35.48
2022-08-26T09:08:45.111Z,34.65
2022-08-26T09:11:30.600Z,35.19
2022-08-26T09:14:23.032Z,35.00
2022-08-26T09:17:24.380Z,34.03
2022-08-26T09:20:14.090Z,34.75
2022-08-26T09:23:00.363Z,35.23
2022-08-26T09:28:33.422Z,34.49
2022-08-26T09:31:15.098Z,34.47
2022-08-26T09:33:47.161Z,33.39
2022-08-26T09:36:41.345Z,33.92
2022-08-26T09:39:33.177Z,33.86
2022-08-26T09:42:14.246Z,34.15
2022-08-26T09:45:03.720Z,33.43
2022-08-26T09:47:39.183Z,33.42
2022-08-26T09:50:31.100Z,34.40
2022-08-26T09:53:28.782Z,31.87
2022-08-26T09:56:32.209Z,30.48
2022-08-26T09:59:32.917Z,29.63
2022-08-26T10:02:24.684Z,29.19
2022-08-26T10:05:29.392Z,28.45
2022-08-26T10:08:27.118Z,27.94
2022-08-26T10:11:23.311Z,28.38
2022-08-26T10:14:03.369Z,28.48
2022-08-26T10:16:48.145Z,28.26
2022-08-26T10:19:56.275Z,28.16
2022-08-26T10:22:59.402Z,27.46
2022-08-26T10:25:59.006Z,28.72
2022-08-26T10:29:07.680Z,27.37
2022-08-26T10:32:05.797Z,28.12
2022-08-26T10:34:58.227Z,27.21
2022-08-26T10:37:54.235Z,27.21
2022-08-26T10:40:56.316Z,28.31
2022-08-26T10:43:43.938Z,28.07
2022-08-26T10:46:43.832Z,26.10
2022-08-26T10:49:37.095Z,26.62
2022-08-26T10:52:42.872Z,26.36
2022-08-26T10:55:41.951Z,26.35
2022-08-26T10:58:55.530Z,26.76
2022-08-26T11:01:53.851Z,26.48
2022-08-26T11:04:52.349Z,26.68
2022-08-26T11:07:46.314Z,27.11
2022-08-26T11:11:08.427Z,26.81
2022-08-26T11:14:05.095Z,26.47
2022-08-26T11:16:58.814Z,27.05
2022-08-26T11:20:09.198Z,26.69
2022-08-26T11:23:36.341Z,26.69
2022-08-26T11:26:55.693Z,26.48
2022-08-26T11:30:05.203Z,25.93
2022-08-26T11:32:52.221Z,25.55
2022-08-26T11:35:48.352Z,25.11
2022-08-26T11:38:33.589Z,26.33
2022-08-26T11:41:18.385Z,26.20
2022-08-26T11:44:07.209Z,26.04
2022-08-26T11:47:03.189Z,25.31
2022-08-26T11:50:09.609Z,23.95
2022-08-26T11:52:53.599Z,24.51
2022-08-26T11:55:45.772Z,24.50
2022-08-26T11:58:28.531Z,25.34
2022-08-26T12:01:22.526Z,25.48
2022-08-26T12:04:07.670Z,25.10
2022-08-26T12:07:01.490Z,25.54
2022-08-26T12:09:51.786Z,25.20
2022-08-26T12:12:34.702Z,24.60
2022-08-26T12:15:22.250Z,23.53
2022-08-26T12:18:29.005Z,23.52
2022-08-26T12:21:25.740Z,23.45
2022-08-26T12:24:21.324Z,23.84
2022-08-26T12:27:23.196Z,24.89
2022-08-26T12:30:12.407Z,25.32
2022-08-26T12:33:22.014Z,24.25
2022-08-26T12:36:19.278Z,24.34
2022-08-26T12:39:15.698Z,24.70
2022-08-26T12:42:22.610Z,24.29
2022-08-26T12:45:00.119Z,24.91
2022-08-26T12:47:58.058Z,24.28
2022-08-26T12:50:52.283Z,24.42
2022-08-26T12:53:45.787Z,24.45
2022-08-26T12:56:39.966Z,24.63
2022-08-26T12:59:32.027Z,24.54
2022-08-26T13:02:33.906Z,24.54
2022-08-26T13:05:23.297Z,25.11
2022-08-26T13:08:17.826Z,24.43
2022-08-26T13:11:15.637Z,23.82
2022-08-26T13:14:01.804Z,24.28
2022-08-26T13:16:54.375Z,24.85
2022-08-26T13:19:46.433Z,24.02
2022-08-26T13:22:30.663Z,24.66
2022-08-26T13:25:22.644Z,24.75
2022-08-26T13:28:05.391Z,24.65
2022-08-26T13:30:50.718Z,24.36
2022-08-26T13:33:37.673Z,23.93
2022-08-26T13:36:20.998Z,24.52
2022-08-26T13:39:13.553Z,24.26
2022-08-26T13:42:05.830Z,25.12
2022-08-26T13:44:44.491Z,24.60
2022-08-26T13:47:31.791Z,24.68
2022-08-26T13:50:23.959Z,24.64
2022-08-26T13:53:17.214Z,24.51
2022-08-26T13:55:49.358Z,24.38
2022-08-26T13:58:41.616Z,24.91
2022-08-26T14:01:35.373Z,25.05
2022-08-26T14:04:27.590Z,25.26
2022-08-26T14:07:19.764Z,25.50
2022-08-26T14:10:12.552Z,24.97
2022-08-26T14:13:04.603Z,24.73
2022-08-26T14:15:50.672Z,24.90
2022-08-26T14:18:48.569Z,25.32
2022-08-26T14:21:42.124Z,25.29
2022-08-26T14:24:32.992Z,25.41
2022-08-26T14:27:25.436Z,24.95
2022-08-26T14:30:18.671Z,24.67
2022-08-26T14:33:01.152Z,24.76
2022-08-26T14:35:47.986Z,25.10
2022-08-26T14:38:42.041Z,24.82
2022-08-26T14:41:36.383Z,24.81
2022-08-26T14:44:31.302Z,24.42
2022-08-26T14:47:23.426Z,24.39
2022-08-26T14:50:07.848Z,24.46
2022-08-26T14:53:17.491Z,24.80
2022-08-26T14:55:59.450Z,24.37
2022-08-26T14:58:51.505Z,24.67
2022-08-26T15:01:30.989Z,24.35
2022-08-26T15:04:24.183Z,25.03
2022-08-26T15:07:16.215Z,24.93
2022-08-26T15:10:12.030Z,24.86
2022-08-26T15:12:48.851Z,25.09
2022-08-26T15:15:30.896Z,25.46
2022-08-26T15:18:23.597Z,25.23
2022-08-26T15:21:15.810Z,24.28
2022-08-26T15:24:01.023Z,24.37
2022-08-26T15:26:45.895Z,24.84
2022-08-26T15:29:30.609Z,24.86
2022-08-26T15:32:14.434Z,24.90
2022-08-26T15:34:50.099Z,25.34
2022-08-26T15:37:32.446Z,25.42
2022-08-26T15:40:26.752Z,25.57
2022-08-26T15:43:28.790Z,25.75
2022-08-26T15:46:21.862Z,25.93
2022-08-26T15:49:18.142Z,26.46
2022-08-26T15:52:09.441Z,27.02
2022-08-26T15:55:01.600Z,26.62
2022-08-26T15:57:37.047Z,26.64
2022-08-26T16:00:29.839Z,26.82
2022-08-26T16:03:22.075Z,26.80
2022-08-26T16:06:05.282Z,27.26
2022-08-26T16:08:57.551Z,27.79
2022-08-26T16:11:47.204Z,27.95
2022-08-26T16:14:19.182Z,27.97
2022-08-26T16:17:11.677Z,28.06
2022-08-26T16:20:04.904Z,27.82
2022-08-26T16:22:57.184Z,27.64
2022-08-26T16:25:49.777Z,27.90
2022-08-26T16:28:34.511Z,27.86
2022-08-26T16:31:26.888Z,28.04
2022-08-26T16:34:18.700Z,28.27
2022-08-26T16:37:03.643Z,28.19
2022-08-26T16:39:55.708Z,28.43
2022-08-26T16:42:40.479Z,29.37
2022-08-26T16:45:32.256Z,29.97
2022-08-26T16:48:24.876Z,30.76
2022-08-26T16:51:18.888Z,31.33
2022-08-26T16:54:11.131Z,31.49
2022-08-26T16:57:03.514Z,31.63
2022-08-26T16:59:55.568Z,32.43
2022-08-26T17:02:40.601Z,32.61
2022-08-26T17:05:32.770Z,33.11
2022-08-26T17:08:28.390Z,34.49
2022-08-26T17:11:21.054Z,35.38
2022-08-26T17:14:13.724Z,35.96
2022-08-26T17:16:45.688Z,36.31
2022-08-26T17:19:34.528Z,37.36
2022-08-26T17:22:25.797Z,38.38
2022-08-26T17:25:16.021Z,38.96
2022-08-26T17:28:13.537Z,39.88
2022-08-26T17:31:06.177Z,40.66
2022-08-26T17:33:58.398Z,42.01
2022-08-26T17:36:50.699Z,43.39
2022-08-26T17:39:44.104Z,43.79
2022-08-26T17:42:31.334Z,43.41
2022-08-26T17:45:24.020Z,44.10
2022-08-26T17:48:14.716Z,45.16
2022-08-26T17:51:12.552Z,45.90
2022-08-26T17:54:04.754Z,45.99
2022-08-26T17:56:57.256Z,46.72
2022-08-26T17:59:49.283Z,47.47
2022-08-26T18:02:40.831Z,48.40
2022-08-26T18:05:32.857Z,49.66
2022-08-26T18:08:14.766Z,50.03
2022-08-26T18:11:11.202Z,51.10
2022-08-26T18:13:47.595Z,51.95
2022-08-26T18:16:31.971Z,52.83
2022-08-26T18:19:24.021Z,52.82
2022-08-26T18:22:16.020Z,52.55
2022-08-26T18:25:09.829Z,52.67
2022-08-26T18:28:01.875Z,53.00
2022-08-26T18:30:54.003Z,54.01
2022-08-26T18:33:50.126Z,54.71
2022-08-26T18:36:43.196Z,54.92
2022-08-26T18:39:35.256Z,54.85
2022-08-26T18:42:27.490Z,55.25
2022-08-26T18:45:19.782Z,55.40
2022-08-26T18:48:12.126Z,55.72
2022-08-26T18:51:05.243Z,55.56
2022-08-26T18:53:58.312Z,56.37
2022-08-26T18:56:33.637Z,56.35
2022-08-26T18:59:27.953Z,57.31
2022-08-26T19:02:15.342Z,58.54
2022-08-26T19:05:08.673Z,58.97
2022-08-26T19:08:00.845Z,59.47
2022-08-26T19:10:53.128Z,60.06
2022-08-26T19:13:46.052Z,60.41
2022-08-26T19:16:39.072Z,61.29
2022-08-26T19:19:31.857Z,61.65
2022-08-26T19:22:24.752Z,61.11
2022-08-26T19:25:17.527Z,60.86
2022-08-26T19:27:52.464Z,60.85
2022-08-26T19:30:47.567Z,61.46
2022-08-26T19:33:35.057Z,62.85
2022-08-26T19:36:28.488Z,63.01
2022-08-26T19:39:20.785Z,62.95
2022-08-26T19:42:12.837Z,63.05
2022-08-26T19:45:24.569Z,62.66
2022-08-26T19:48:11.429Z,63.24
2022-08-26T19:51:02.387Z,63.62
2022-08-26T19:53:44.733Z,63.90
2022-08-26T19:56:30.229Z,64.12
2022-08-26T19:59:14.634Z,64.31
2022-08-26T20:02:01.376Z,64.33
2022-08-26T20:04:41.989Z,64.67
2022-08-26T20:07:34.069Z,65.09
2022-08-26T20:10:27.020Z,65.47
2022-08-26T20:13:19.608Z,65.43
2022-08-26T20:16:12.331Z,65.66
2022-08-26T20:19:21.548Z,66.57
2022-08-26T20:22:16.001Z,66.94
2022-08-26T20:25:09.030Z,67.28
2022-08-26T20:27:54.362Z,67.78
2022-08-26T20:30:46.443Z,67.95
2022-08-26T20:33:39.850Z,68.18
2022-08-26T20:36:41.755Z,68.32
2022-08-26T20:39:33.886Z,68.64
2022-08-26T20:42:26.429Z,68.73
2022-08-26T20:45:11.270Z,68.98
2022-08-26T20:48:03.561Z,68.82
2022-08-26T20:50:59.428Z,69.03
2022-08-26T20:53:45.204Z,69.26
2022-08-26T20:56:38.037Z,69.40
2022-08-26T20:59:30.175Z,69.26
2022-08-26T21:02:23.502Z,68.72
2022-08-26T21:05:15.722Z,69.06
2022-08-26T21:08:07.902Z,69.28
2022-08-26T21:10:51.296Z,69.32
2022-08-26T21:13:48.585Z,69.98
2022-08-26T21:16:34.470Z,70.27
2022-08-26T21:19:21.163Z,70.69
2022-08-26T21:22:13.220Z,71.35
2022-08-26T21:24:59.016Z,71.48
2022-08-26T21:27:51.189Z,71.45
2022-08-26T21:30:43.463Z,71.76
2022-08-26T21:33:35.749Z,71.72
2022-08-26T21:36:21.157Z,71.63
2022-08-26T21:39:13.947Z,71.54
2022-08-26T21:42:06.341Z,71.64
2022-08-26T21:44:58.401Z,71.67
2022-08-26T21:47:49.357Z,71.89
2022-08-26T21:50:41.586Z,71.90
2022-08-26T21:53:33.839Z,71.90
2022-08-26T21:56:28.084Z,72.23
2022-08-26T21:59:21.292Z,72.31
2022-08-26T22:02:13.653Z,72.33
2022-08-26T22:05:07.336Z,72.93
2022-08-26T22:07:59.478Z,72.95
2022-08-26T22:10:53.805Z,73.16
2022-08-26T22:13:30.033Z,73.37
2022-08-26T22:16:22.470Z,73.42
2022-08-26T22:19:17.253Z,73.34
2022-08-26T22:21:50.970Z,73.50
2022-08-26T22:24:32.594Z,73.58
2022-08-26T22:27:25.671Z,73.49
2022-08-26T22:30:19.959Z,73.11
2022-08-26T22:33:06.406Z,72.69
2022-08-26T22:35:41.073Z,72.77
2022-08-26T22:38:33.531Z,72.65
2022-08-26T22:41:25.868Z,73.28
2022-08-26T22:44:18.970Z,73.41
2022-08-26T22:47:11.038Z,73.47
2022-08-26T22:49:59.317Z,73.71
2022-08-26T22:52:51.470Z,73.74
2022-08-26T22:55:37.234Z,73.95
2022-08-26T22:58:30.953Z,73.91
2022-08-26T23:01:15.659Z,73.74
2022-08-26T23:03:58.742Z,73.98
2022-08-26T23:06:50.857Z,74.00
2022-08-26T23:09:43.074Z,74.16
2022-08-26T23:12:37.172Z,74.25
2022-08-26T23:15:29.402Z,74.27
2022-08-26T23:18:22.697Z,74.38
2022-08-26T23:21:15.338Z,74.73
2022-08-26T23:24:09.122Z,75.03
2022-08-26T23:27:02.199Z,75.33
2022-08-26T23:29:54.259Z,75.27
2022-08-26T23:32:46.361Z,75.28
2022-08-26T23:35:38.520Z,75.40
2022-08-26T23:38:26.217Z,75.31
2022-08-26T23:41:18.364Z,75.43
2022-08-26T23:44:10.514Z,75.22
2022-08-26T23:47:03.429Z,75.40
2022-08-26T23:49:54.086Z,75.12
2022-08-26T23:52:56.417Z,75.02
2022-08-26T23:55:49.807Z,74.91
2022-08-26T23:58:42.973Z,75.44
